createdAt,value
2019-03-22T00:02:21.300Z,39.48
2019-03-22T00:05:25.179Z,35.25
2019-03-22T00:08:29.040Z,40.52
2019-03-22T00:11:32.956Z,33.65
2019-03-22T00:14:37.204Z,43.70
2019-03-22T00:17:41.084Z,44.00
2019-03-22T00:20:44.863Z,39.83
2019-03-22T00:23:48.699Z,41.63
2019-03-22T00:26:52.412Z,40.12
2019-03-22T00:29:56.256Z,39.83
2019-03-22T00:33:00.033Z,48.70
2019-03-22T00:36:03.738Z,42.50
2019-03-22T00:39:07.445Z,43.28
2019-03-22T00:42:11.153Z,36.80
2019-03-22T00:45:14.955Z,40.20
2019-03-22T00:48:18.815Z,51.90
2019-03-22T00:51:22.509Z,37.75
2019-03-22T00:54:26.204Z,37.80
2019-03-22T00:57:29.992Z,34.67
2019-03-22T01:00:33.855Z,39.05
2019-03-22T01:03:37.611Z,42.33
2019-03-22T01:06:41.472Z,40.12
2019-03-22T01:09:45.128Z,45.80
2019-03-22T01:12:48.842Z,45.98
2019-03-22T01:15:52.647Z,46.92
2019-03-22T01:18:56.456Z,40.33
2019-03-22T01:22:00.195Z,47.58
2019-03-22T01:25:04.636Z,46.98
2019-03-22T01:28:08.284Z,44.58
2019-03-22T01:31:12.143Z,46.92
2019-03-22T01:34:15.807Z,46.25
2019-03-22T01:37:19.656Z,33.78
2019-03-22T01:40:23.571Z,32.15
2019-03-22T01:43:27.240Z,37.60
2019-03-22T01:46:30.959Z,42.45
2019-03-22T01:49:34.654Z,43.80
2019-03-22T01:52:39.116Z,44.73
2019-03-22T01:55:42.820Z,42.88
2019-03-22T01:58:46.498Z,46.10
2019-03-22T02:01:50.245Z,40.98
2019-03-22T02:04:54.036Z,48.75
2019-03-22T02:07:57.766Z,37.63
2019-03-22T02:11:01.356Z,49.30
2019-03-22T02:14:05.016Z,44.20
2019-03-22T02:17:08.743Z,53.52
2019-03-22T02:20:13.472Z,51.92
2019-03-22T02:23:17.377Z,47.40
2019-03-22T02:26:21.132Z,53.00
2019-03-22T02:29:24.892Z,45.98
2019-03-22T02:32:28.715Z,43.63
2019-03-22T02:35:32.444Z,48.60
2019-03-22T02:38:36.221Z,43.38
2019-03-22T02:41:40.065Z,50.00
2019-03-22T02:44:43.830Z,41.02
2019-03-22T02:47:47.555Z,48.55
2019-03-22T02:50:51.277Z,46.73
2019-03-22T02:53:55.187Z,45.75
2019-03-22T02:56:58.976Z,42.93
2019-03-22T03:00:03.015Z,46.65
2019-03-22T03:03:06.901Z,57.50
2019-03-22T03:06:10.647Z,51.75
2019-03-22T03:09:56.665Z,53.38
2019-03-22T03:13:00.405Z,51.88
2019-03-22T03:16:04.344Z,57.08
2019-03-22T03:19:08.145Z,59.48
2019-03-22T03:22:11.853Z,59.65
2019-03-22T03:25:15.864Z,53.73
2019-03-22T03:28:19.567Z,50.65
2019-03-22T03:31:23.518Z,55.88
2019-03-22T03:34:27.200Z,58.95
2019-03-22T03:37:30.896Z,56.92
2019-03-22T03:40:34.637Z,55.60
2019-03-22T03:43:38.313Z,54.15
2019-03-22T03:46:42.018Z,59.98
2019-03-22T03:49:45.724Z,60.48
2019-03-22T03:52:49.433Z,55.90
2019-03-22T03:55:53.211Z,57.65
2019-03-22T03:58:56.880Z,53.92
2019-03-22T04:02:00.696Z,53.40
2019-03-22T04:05:04.495Z,59.75
2019-03-22T04:08:08.204Z,55.48
2019-03-22T04:11:12.057Z,56.18
2019-03-22T04:14:15.828Z,61.63
2019-03-22T04:17:30.684Z,53.55
2019-03-22T04:20:34.304Z,55.43
2019-03-22T04:23:37.993Z,56.18
2019-03-22T04:26:41.818Z,57.03
2019-03-22T04:29:45.516Z,56.75
2019-03-22T04:32:49.333Z,56.55
2019-03-22T04:35:53.141Z,61.63
2019-03-22T04:38:56.936Z,53.80
2019-03-22T04:42:00.764Z,53.75
2019-03-22T04:45:05.093Z,56.48
2019-03-22T04:48:17.703Z,59.50
2019-03-22T04:51:22.360Z,57.25
2019-03-22T04:54:27.532Z,54.63
2019-03-22T04:57:32.468Z,60.23
2019-03-22T05:00:36.829Z,56.35
2019-03-22T05:03:41.827Z,54.05
2019-03-22T05:06:46.768Z,59.63
2019-03-22T05:09:51.020Z,48.70
2019-03-22T05:12:57.832Z,46.08
2019-03-22T05:16:02.018Z,41.50
2019-03-22T05:19:08.208Z,47.67
2019-03-22T05:22:14.386Z,42.43
2019-03-22T05:25:19.956Z,46.25
2019-03-22T05:28:27.231Z,42.10
2019-03-22T05:32:09.911Z,38.42
2019-03-22T05:35:13.619Z,43.90
2019-03-22T05:38:17.310Z,46.15
2019-03-22T05:41:21.032Z,36.90
2019-03-22T05:44:24.777Z,40.45
2019-03-22T05:47:28.485Z,39.10
2019-03-22T05:50:32.251Z,39.33
2019-03-22T05:53:36.101Z,42.23
2019-03-22T05:56:39.777Z,42.03
2019-03-22T05:59:43.512Z,39.78
2019-03-22T06:02:47.328Z,42.17
2019-03-22T06:05:51.012Z,41.33
2019-03-22T06:08:54.746Z,38.33
2019-03-22T06:11:58.819Z,39.63
2019-03-22T06:15:02.526Z,41.23
2019-03-22T06:18:07.192Z,41.42
2019-03-22T06:21:10.963Z,38.58
2019-03-22T06:24:14.703Z,37.17
2019-03-22T06:27:18.503Z,36.05
2019-03-22T06:30:22.347Z,33.78
2019-03-22T06:33:26.099Z,33.80
2019-03-22T06:36:29.824Z,34.03
2019-03-22T06:39:34.685Z,30.65
2019-03-22T06:42:38.613Z,28.85
2019-03-22T06:45:42.259Z,27.50
2019-03-22T06:48:46.113Z,27.87
2019-03-22T06:51:49.780Z,26.25
2019-03-22T06:54:53.492Z,32.42
2019-03-22T06:57:57.127Z,30.05
2019-03-22T07:01:01.200Z,26.57
2019-03-22T07:04:04.927Z,29.15
2019-03-22T07:07:09.128Z,29.00
2019-03-22T07:10:12.944Z,29.77
2019-03-22T07:13:16.783Z,27.62
2019-03-22T07:16:20.560Z,33.92
2019-03-22T07:19:24.305Z,30.08
2019-03-22T07:22:27.964Z,32.48
2019-03-22T07:25:31.692Z,24.85
2019-03-22T07:28:35.734Z,29.15
2019-03-22T07:31:39.421Z,26.27
2019-03-22T07:34:43.156Z,24.85
2019-03-22T07:37:47.945Z,29.30
2019-03-22T07:40:54.975Z,29.05
2019-03-22T07:44:02.413Z,29.60
2019-03-22T07:47:12.353Z,30.88
2019-03-22T07:51:07.430Z,24.70
2019-03-22T07:54:19.076Z,25.20
2019-03-22T07:57:30.463Z,29.10
2019-03-22T08:00:34.968Z,24.25
2019-03-22T08:03:39.820Z,26.15
2019-03-22T08:06:44.382Z,32.53
2019-03-22T08:09:51.269Z,27.52
2019-03-22T08:12:56.316Z,27.13
2019-03-22T08:16:00.188Z,27.17
2019-03-22T08:19:04.004Z,28.32
2019-03-22T08:22:07.800Z,34.13
2019-03-22T08:25:12.523Z,27.52
2019-03-22T08:28:16.346Z,29.57
2019-03-22T08:31:20.504Z,25.88
2019-03-22T08:34:24.308Z,29.07
2019-03-22T08:37:28.107Z,32.25
2019-03-22T08:40:31.899Z,31.25
2019-03-22T08:43:35.693Z,29.90
2019-03-22T08:46:39.632Z,33.45
2019-03-22T08:49:43.748Z,33.63
2019-03-22T08:52:47.651Z,30.60
2019-03-22T08:55:52.531Z,34.58
2019-03-22T08:58:56.394Z,41.75
2019-03-22T09:02:00.311Z,40.08
2019-03-22T09:05:04.804Z,29.85
2019-03-22T09:08:08.640Z,29.95
2019-03-22T09:11:12.588Z,27.67
2019-03-22T09:14:16.391Z,28.07
2019-03-22T09:17:20.279Z,28.00
2019-03-22T09:20:24.322Z,29.57
2019-03-22T09:23:29.045Z,24.98
2019-03-22T09:26:32.768Z,26.35
2019-03-22T09:29:36.536Z,30.82
2019-03-22T09:32:40.259Z,28.52
2019-03-22T09:35:47.680Z,28.70
2019-03-22T09:38:51.452Z,23.90
2019-03-22T09:41:55.195Z,29.32
2019-03-22T09:44:58.922Z,26.93
2019-03-22T09:48:02.767Z,24.92
2019-03-22T09:51:08.433Z,24.98
2019-03-22T09:54:12.164Z,23.45
2019-03-22T09:57:16.073Z,25.17
2019-03-22T10:00:30.473Z,28.23
2019-03-22T10:03:34.113Z,28.02
2019-03-22T10:06:37.861Z,33.45
2019-03-22T10:09:41.645Z,26.77
2019-03-22T10:12:45.421Z,30.40
2019-03-22T10:15:49.145Z,26.52
2019-03-22T10:18:52.959Z,28.30
2019-03-22T10:21:56.737Z,30.43
2019-03-22T10:25:00.478Z,32.93
2019-03-22T10:28:04.380Z,26.02
2019-03-22T10:31:08.643Z,32.63
2019-03-22T10:34:12.382Z,29.20
2019-03-22T10:37:16.207Z,30.27
2019-03-22T10:40:19.827Z,33.50
2019-03-22T10:43:23.618Z,35.00
2019-03-22T10:46:27.324Z,31.02
2019-03-22T10:49:32.105Z,34.15
2019-03-22T10:52:35.874Z,28.77
2019-03-22T10:55:39.569Z,36.73
2019-03-22T10:58:43.428Z,30.37
2019-03-22T11:02:02.237Z,29.37
2019-03-22T11:04:52.864Z,33.15
2019-03-22T11:07:56.788Z,36.68
2019-03-22T11:11:01.069Z,35.63
2019-03-22T11:14:05.108Z,32.90
2019-03-22T11:17:09.924Z,31.57
2019-03-22T11:20:14.488Z,38.25
2019-03-22T11:23:18.191Z,36.33
2019-03-22T11:26:21.970Z,39.25
2019-03-22T11:29:25.716Z,32.10
2019-03-22T11:32:29.484Z,38.33
2019-03-22T11:35:33.232Z,36.23
2019-03-22T11:38:37.037Z,35.10
2019-03-22T11:41:40.854Z,35.58
2019-03-22T11:44:44.555Z,32.20
2019-03-22T11:47:48.323Z,32.80
2019-03-22T11:50:52.956Z,35.95
2019-03-22T11:53:56.802Z,37.98
2019-03-22T11:57:01.077Z,39.25
2019-03-22T12:00:08.929Z,37.60
2019-03-22T12:03:12.676Z,37.73
2019-03-22T12:06:16.309Z,36.90
2019-03-22T12:09:20.053Z,35.25
2019-03-22T12:12:23.820Z,35.25
2019-03-22T12:15:27.569Z,40.85
2019-03-22T12:18:31.267Z,36.75
2019-03-22T12:21:34.950Z,39.40
2019-03-22T12:24:38.789Z,33.45
2019-03-22T12:27:42.769Z,37.53
2019-03-22T12:30:46.612Z,41.10
2019-03-22T12:33:50.289Z,40.43
2019-03-22T12:36:53.999Z,35.50
2019-03-22T12:39:57.837Z,36.28
2019-03-22T12:43:01.921Z,36.10
2019-03-22T12:46:05.761Z,40.12
2019-03-22T12:49:09.431Z,29.42
2019-03-22T12:52:13.249Z,34.40
2019-03-22T12:55:18.224Z,30.90
2019-03-22T12:58:23.016Z,34.13
2019-03-22T13:01:27.948Z,32.45
2019-03-22T13:04:32.427Z,33.25
2019-03-22T13:07:36.231Z,42.55
2019-03-22T13:10:40.112Z,36.28
2019-03-22T13:13:43.907Z,38.78
2019-03-22T13:16:47.620Z,38.17
2019-03-22T13:19:52.340Z,42.00
2019-03-22T13:22:57.176Z,38.15
2019-03-22T13:26:00.910Z,38.98
2019-03-22T13:29:04.696Z,36.38
2019-03-22T13:32:08.970Z,34.35
2019-03-22T13:35:12.760Z,32.67
2019-03-22T13:38:16.436Z,38.40
2019-03-22T13:41:20.223Z,36.55
2019-03-22T13:44:23.944Z,33.55
2019-03-22T13:47:27.653Z,36.38
2019-03-22T13:50:31.397Z,35.55
2019-03-22T13:53:35.295Z,36.95
2019-03-22T13:56:38.981Z,36.05
2019-03-22T13:59:42.789Z,34.33
2019-03-22T14:02:46.499Z,37.75
2019-03-22T14:05:50.340Z,35.38
2019-03-22T14:08:54.011Z,40.98
2019-03-22T14:11:57.825Z,39.05
2019-03-22T14:15:01.731Z,34.03
2019-03-22T14:18:05.677Z,36.93
2019-03-22T14:21:09.385Z,38.35
2019-03-22T14:24:13.061Z,35.60
2019-03-22T14:27:16.801Z,35.25
2019-03-22T14:30:21.599Z,32.93
2019-03-22T14:33:25.312Z,39.27
2019-03-22T14:36:29.049Z,37.23
2019-03-22T14:39:32.823Z,36.93
2019-03-22T14:42:36.672Z,32.17
2019-03-22T14:45:40.404Z,40.75
2019-03-22T14:48:44.049Z,37.38
2019-03-22T14:51:47.788Z,41.00
2019-03-22T14:54:51.568Z,35.45
2019-03-22T14:57:55.278Z,39.50
2019-03-22T15:00:59.116Z,37.67
2019-03-22T15:04:02.924Z,37.75
2019-03-22T15:07:06.818Z,36.63
2019-03-22T15:10:11.016Z,38.50
2019-03-22T15:13:15.085Z,36.55
2019-03-22T15:16:38.002Z,35.88
2019-03-22T15:19:59.976Z,37.63
2019-03-22T15:23:21.541Z,34.53
2019-03-22T15:26:49.155Z,40.60
2019-03-22T15:30:16.968Z,36.45
2019-03-22T15:33:40.152Z,40.55
2019-03-22T15:37:12.586Z,41.00
2019-03-22T15:40:17.791Z,35.30
2019-03-22T15:43:21.492Z,36.15
2019-03-22T15:46:25.284Z,33.23
2019-03-22T15:49:29.009Z,37.30
2019-03-22T15:52:32.728Z,33.73
2019-03-22T15:55:36.625Z,32.55
2019-03-22T15:58:40.312Z,37.63
2019-03-22T16:01:44.126Z,36.17
2019-03-22T16:04:47.829Z,39.08
2019-03-22T16:07:51.589Z,34.50
2019-03-22T16:10:55.245Z,34.98
2019-03-22T16:13:59.172Z,39.70
2019-03-22T16:17:02.956Z,37.55
2019-03-22T16:20:08.095Z,36.80
2019-03-22T16:23:11.912Z,40.88
2019-03-22T16:26:15.616Z,37.98
2019-03-22T16:29:19.329Z,40.70
2019-03-22T16:32:23.010Z,40.05
2019-03-22T16:35:26.632Z,37.90
2019-03-22T16:38:30.447Z,35.68
2019-03-22T16:41:34.132Z,36.98
2019-03-22T16:44:37.860Z,38.58
2019-03-22T16:47:41.543Z,103.02
2019-03-22T16:50:45.280Z,42.35
2019-03-22T16:53:48.981Z,45.33
2019-03-22T16:56:52.789Z,37.30
2019-03-22T16:59:56.533Z,38.20
2019-03-22T17:03:00.408Z,39.30
2019-03-22T17:06:04.156Z,33.40
2019-03-22T17:09:07.961Z,41.45
2019-03-22T17:12:11.633Z,43.35
2019-03-22T17:15:15.376Z,44.95
2019-03-22T17:18:19.144Z,45.40
2019-03-22T17:21:22.996Z,42.73
2019-03-22T17:24:26.680Z,42.33
2019-03-22T17:27:30.480Z,45.73
2019-03-22T17:30:34.328Z,45.08
2019-03-22T17:33:38.095Z,63.98
2019-03-22T17:36:41.800Z,46.92
2019-03-22T17:39:45.524Z,50.70
2019-03-22T17:42:49.211Z,60.45
2019-03-22T17:45:52.957Z,47.55
2019-03-22T17:48:56.828Z,53.75
2019-03-22T17:52:00.544Z,47.85
2019-03-22T17:55:04.552Z,51.50
2019-03-22T17:58:08.270Z,64.62
2019-03-22T18:01:12.215Z,52.05
2019-03-22T18:04:23.899Z,52.95
2019-03-22T18:07:21.335Z,46.77
2019-03-22T18:10:25.073Z,54.23
2019-03-22T18:13:28.827Z,55.33
2019-03-22T18:16:32.691Z,59.67
2019-03-22T18:19:36.467Z,83.82
2019-03-22T18:22:40.273Z,62.50
2019-03-22T18:25:44.137Z,62.67
2019-03-22T18:28:47.824Z,59.85
2019-03-22T18:31:52.624Z,59.58
2019-03-22T18:34:56.169Z,59.25
2019-03-22T18:37:59.944Z,56.53
2019-03-22T18:41:03.785Z,55.60
2019-03-22T18:44:07.356Z,51.83
2019-03-22T18:47:11.205Z,48.95
2019-03-22T18:50:14.988Z,56.83
2019-03-22T18:53:18.888Z,62.33
2019-03-22T18:56:22.675Z,53.85
2019-03-22T18:59:26.401Z,54.40
2019-03-22T19:02:30.040Z,60.17
2019-03-22T19:05:33.800Z,52.73
2019-03-22T19:08:37.535Z,63.13
2019-03-22T19:11:41.472Z,55.48
2019-03-22T19:14:45.116Z,56.73
2019-03-22T19:17:48.847Z,58.65
2019-03-22T19:20:52.562Z,67.15
2019-03-22T19:23:56.414Z,61.28
2019-03-22T19:27:00.104Z,67.17
2019-03-22T19:30:04.740Z,68.70
2019-03-22T19:33:08.512Z,71.75
2019-03-22T19:36:12.218Z,75.47
2019-03-22T19:39:16.023Z,68.60
2019-03-22T19:42:19.724Z,71.50
2019-03-22T19:45:23.552Z,71.10
2019-03-22T19:48:27.250Z,71.92
2019-03-22T19:51:31.060Z,70.90
2019-03-22T19:54:34.756Z,72.03
2019-03-22T19:57:38.662Z,68.72
2019-03-22T20:00:42.384Z,70.78
2019-03-22T20:03:46.200Z,71.57
2019-03-22T20:06:49.909Z,77.72
2019-03-22T20:09:53.616Z,79.95
2019-03-22T20:12:57.345Z,80.20
2019-03-22T20:16:01.125Z,86.80
2019-03-22T20:19:04.936Z,73.25
2019-03-22T20:22:08.844Z,75.30
2019-03-22T20:25:12.709Z,87.00
2019-03-22T20:28:16.347Z,85.20
2019-03-22T20:31:20.072Z,88.17
2019-03-22T20:34:23.990Z,95.53
2019-03-22T20:37:27.795Z,88.78
2019-03-22T20:40:31.741Z,87.15
2019-03-22T20:43:35.552Z,81.42
2019-03-22T20:46:39.320Z,84.15
2019-03-22T20:49:43.068Z,80.30
2019-03-22T20:52:46.888Z,86.87
2019-03-22T20:55:50.679Z,82.85
2019-03-22T20:58:54.400Z,91.65
2019-03-22T21:01:58.046Z,87.20
2019-03-22T21:05:02.022Z,63.92
2019-03-22T21:08:05.893Z,89.52
2019-03-22T21:11:09.631Z,79.27
2019-03-22T21:14:13.443Z,87.82
2019-03-22T21:17:17.223Z,91.10
2019-03-22T21:20:20.956Z,101.20
2019-03-22T21:23:24.733Z,72.05
2019-03-22T21:26:28.580Z,83.65
2019-03-22T21:29:32.284Z,91.02
2019-03-22T21:32:44.733Z,76.13
2019-03-22T21:35:41.644Z,87.78
2019-03-22T21:38:45.313Z,88.90
2019-03-22T21:41:49.156Z,93.17
2019-03-22T21:44:52.870Z,85.22
2019-03-22T21:47:56.541Z,78.92
2019-03-22T21:51:00.296Z,86.67
2019-03-22T21:54:03.999Z,84.20
2019-03-22T21:57:07.644Z,76.77
2019-03-22T22:00:11.508Z,73.07
2019-03-22T22:03:15.276Z,76.60
2019-03-22T22:06:19.009Z,85.53
2019-03-22T22:09:22.694Z,78.67
2019-03-22T22:12:26.493Z,81.13
2019-03-22T22:15:51.252Z,79.83
2019-03-22T22:18:54.820Z,79.30
2019-03-22T22:21:58.564Z,82.10
2019-03-22T22:25:02.220Z,75.70
2019-03-22T22:28:06.196Z,80.90
2019-03-22T22:31:09.972Z,301.53
2019-03-22T22:34:13.671Z,78.53
2019-03-22T22:37:17.384Z,87.72
2019-03-22T22:40:21.082Z,85.47
2019-03-22T22:43:24.784Z,89.30
2019-03-22T22:46:28.734Z,76.20
2019-03-22T22:49:32.392Z,66.57
2019-03-22T22:52:36.155Z,77.47
2019-03-22T22:55:39.973Z,67.33
2019-03-22T22:58:43.632Z,76.87
2019-03-22T23:01:47.483Z,72.97
2019-03-22T23:04:51.251Z,66.10
2019-03-22T23:07:54.996Z,64.03
2019-03-22T23:10:58.660Z,70.67
2019-03-22T23:14:02.369Z,73.00
2019-03-22T23:17:07.132Z,68.00
2019-03-22T23:20:11.009Z,78.23
2019-03-22T23:23:14.621Z,80.87
2019-03-22T23:26:18.426Z,69.47
2019-03-22T23:29:22.264Z,92.43
2019-03-22T23:32:26.192Z,91.17
2019-03-22T23:35:30.008Z,94.53
2019-03-22T23:38:33.869Z,102.03
2019-03-22T23:41:37.777Z,122.43
2019-03-22T23:44:41.844Z,100.27
2019-03-22T23:47:45.588Z,97.27
2019-03-22T23:50:49.364Z,128.73
2019-03-22T23:53:53.028Z,134.50
2019-03-22T23:56:56.823Z,173.67
